»·PEaware :: N333ZA L18-KSMO

N333ZA :: L18-KSMO

FLIGHT INFORMATION

Flight Status: Arrived
Operator: Privately registered:
United States
More flights under this callsign
Pilot: Judd H. (29974)
Aircraft: CESSNA 210 CENTURION
(C210)
More flights by this aircraft type
Origin: L18 Fallbrook Community
United States
Destination: KSMO Santa Monica Mun
United States
More flights between these airports :: More routes between these airports
Route: OCN V23 DANAH V363 BAYJY V186 DARTS
File this flight plan on PilotEdge
Remarks:
Altitude:
(Current/Filed)
6,000ft
Speed:
(Current/Filed)
150kts
Departed: 10-Nov-20 12:21 PM
Arrived: 10-Nov-20 01:01 PM
Distance/Time
Traveled:
72nm/0:40
Distance/Time
To Go:
Arrived

Flight Plot

Page will automatically refresh every two minutes.

Flight plan parsing failed; only flown route is shown


Map Options




Map Legend


Flown Route
Filed Route
Departure Airport
Arrival Airport
Navaid (VOR, NDB)
Fix

Horizontal Profiles

Position Reports

Time Latitude Longitude Heading Altitude Ground
Speed
10-Nov-20 12:00 33.356750 -117.252247 15 674ft 0kts
10-Nov-20 12:01 33.356750 -117.252247 15 674ft 0kts
10-Nov-20 12:02 33.356750 -117.252247 15 674ft 0kts
10-Nov-20 12:03 33.356750 -117.252247 15 674ft 0kts
10-Nov-20 12:04 33.356750 -117.252247 15 674ft 0kts
10-Nov-20 12:05 33.356750 -117.252247 15 674ft 0kts
10-Nov-20 12:06 33.356750 -117.252247 15 674ft 0kts
10-Nov-20 12:07 33.356750 -117.252247 15 674ft 0kts
10-Nov-20 12:09 33.356750 -117.252247 15 674ft 0kts
10-Nov-20 12:10 33.356750 -117.252247 15 674ft 0kts
10-Nov-20 12:11 33.356750 -117.252247 15 674ft 0kts
10-Nov-20 12:13 33.356750 -117.252247 15 674ft 0kts
10-Nov-20 12:14 33.356750 -117.252247 15 674ft 0kts
10-Nov-20 12:15 33.356383 -117.250352 196 674ft 7kts
10-Nov-20 12:16 33.357173 -117.249794 19 674ft 6kts
10-Nov-20 12:17 33.357246 -117.249759 24 674ft 0kts
10-Nov-20 12:18 33.357246 -117.249759 24 674ft 0kts
10-Nov-20 12:19 33.357246 -117.249759 24 674ft 0kts
10-Nov-20 12:20 33.351624 -117.251109 195 701ft 80kts
10-Nov-20 12:21 33.325889 -117.264938 234 1720ft 117kts
10-Nov-20 12:22 33.308690 -117.302033 241 2604ft 133kts
10-Nov-20 12:23 33.289996 -117.341256 242 3352ft 137kts
10-Nov-20 12:24 33.269229 -117.378027 238 4237ft 134kts
10-Nov-20 12:25 33.246208 -117.411988 257 5174ft 122kts
10-Nov-20 12:26 33.262095 -117.445551 319 5834ft 129kts
10-Nov-20 12:27 33.291089 -117.476762 314 6042ft 145kts
10-Nov-20 12:28 33.322605 -117.510717 317 5980ft 155kts
10-Nov-20 12:29 33.353347 -117.548226 314 5980ft 161kts
10-Nov-20 12:30 33.384712 -117.588048 316 5980ft 166kts
10-Nov-20 12:31 33.417688 -117.627939 319 5882ft 170kts
10-Nov-20 12:32 33.452326 -117.666133 320 5879ft 169kts
10-Nov-20 12:33 33.488894 -117.700733 327 5881ft 168kts
10-Nov-20 12:34 33.534050 -117.707550 2 5880ft 165kts
10-Nov-20 12:35 33.578939 -117.713420 352 5879ft 166kts
10-Nov-20 12:36 33.624481 -117.723953 350 5880ft 166kts
10-Nov-20 12:37 33.670190 -117.731951 355 5880ft 166kts
10-Nov-20 12:38 33.713929 -117.749455 332 5880ft 168kts
10-Nov-20 12:39 33.757491 -117.768604 341 5880ft 167kts
10-Nov-20 12:40 33.802126 -117.782661 357 5885ft 165kts
10-Nov-20 12:41 33.848204 -117.782127 1 5881ft 165kts
10-Nov-20 12:42 33.893800 -117.781888 358 5880ft 166kts
10-Nov-20 12:44 33.940038 -117.784779 356 5877ft 166kts
10-Nov-20 12:45 33.986240 -117.786507 359 5873ft 167kts
10-Nov-20 12:46 34.019437 -117.819512 296 5875ft 170kts
10-Nov-20 12:47 34.033243 -117.874374 290 5871ft 171kts
10-Nov-20 12:48 34.051444 -117.927461 293 5871ft 171kts
10-Nov-20 12:49 34.067477 -117.981737 291 5870ft 170kts
10-Nov-20 12:50 34.083281 -118.035180 291 5870ft 170kts
10-Nov-20 12:51 34.099640 -118.090856 291 5363ft 178kts
10-Nov-20 12:52 34.117081 -118.146214 292 4779ft 177kts
10-Nov-20 12:53 34.132996 -118.198461 288 4261ft 151kts
10-Nov-20 12:54 34.145161 -118.244143 284 4208ft 140kts
10-Nov-20 12:55 34.140960 -118.290407 235 4051ft 157kts
10-Nov-20 12:56 34.113116 -118.331980 232 3396ft 166kts
10-Nov-20 12:57 34.082838 -118.371831 227 2190ft 152kts
10-Nov-20 12:58 34.054996 -118.405801 221 1204ft 143kts
10-Nov-20 12:59 34.032060 -118.431986 226 560ft 99kts
10-Nov-20 12:59 34.016779 -118.450226 223 179ft 69kts
10-Nov-20 13:01 34.012713 -118.453570 98 178ft 6kts
10-Nov-20 13:02 34.013321 -118.451837 13 178ft 3kts
10-Nov-20 13:03 34.013450 -118.451940 317 178ft 0kts
10-Nov-20 13:03 34.013450 -118.451940 317 178ft 0kts
10-Nov-20 13:04 34.013450 -118.451940 317 178ft 0kts
10-Nov-20 13:06 34.013450 -118.451940 317 178ft 0kts
10-Nov-20 13:06 34.013450 -118.451940 317 178ft 0kts
10-Nov-20 13:08 34.013450 -118.451940 317 178ft 0kts

Navigation Log

Ident Type
Flight plan parsing failed, navigation log unavailable